createdAt,value
2019-02-21T00:02:10.007Z,4.37
2019-02-21T00:04:38.401Z,3.92
2019-02-21T00:07:06.793Z,3.70
2019-02-21T00:09:35.276Z,2.40
2019-02-21T00:12:03.676Z,2.65
2019-02-21T00:14:32.097Z,5.05
2019-02-21T00:17:00.543Z,5.00
2019-02-21T00:19:28.940Z,4.25
2019-02-21T00:21:57.344Z,7.67
2019-02-21T00:24:25.739Z,8.40
2019-02-21T00:26:54.251Z,3.15
2019-02-21T00:29:22.656Z,2.15
2019-02-21T00:31:51.049Z,2.95
2019-02-21T00:34:19.458Z,1.42
2019-02-21T00:36:47.849Z,2.83
2019-02-21T00:39:16.289Z,4.35
2019-02-21T00:41:44.716Z,2.02
2019-02-21T00:44:13.181Z,2.98
2019-02-21T00:46:41.582Z,4.33
2019-02-21T00:49:09.980Z,1.92
2019-02-21T00:51:38.408Z,4.37
2019-02-21T00:54:06.809Z,2.10
2019-02-21T00:56:35.201Z,2.02
2019-02-21T00:59:03.604Z,3.58
2019-02-21T01:01:32.027Z,0.90
2019-02-21T01:04:00.496Z,3.65
2019-02-21T01:06:28.996Z,2.95
2019-02-21T01:08:57.464Z,2.92
2019-02-21T01:11:25.876Z,5.65
2019-02-21T01:13:54.362Z,3.62
2019-02-21T01:16:22.797Z,2.30
2019-02-21T01:18:51.249Z,5.90
2019-02-21T01:21:19.648Z,6.40
2019-02-21T01:23:48.057Z,1.77
2019-02-21T01:26:16.452Z,1.05
2019-02-21T01:28:44.880Z,7.20
2019-02-21T01:31:13.287Z,1.80
2019-02-21T01:33:41.676Z,3.27
2019-02-21T01:36:10.144Z,2.83
2019-02-21T01:38:38.547Z,3.95
2019-02-21T01:41:06.971Z,1.60
2019-02-21T01:43:35.365Z,1.45
2019-02-21T01:46:03.799Z,6.30
2019-02-21T01:48:32.196Z,3.55
2019-02-21T01:51:00.664Z,6.53
2019-02-21T01:53:29.108Z,1.95
2019-02-21T01:55:57.501Z,5.05
2019-02-21T01:58:25.896Z,7.83
2019-02-21T02:00:54.490Z,2.85
2019-02-21T02:03:22.899Z,10.20
2019-02-21T02:05:51.358Z,5.80
2019-02-21T02:08:19.724Z,2.92
2019-02-21T02:10:48.121Z,2.17
2019-02-21T02:13:24.141Z,7.00
2019-02-21T02:15:46.641Z,8.17
2019-02-21T02:18:15.073Z,1.37
2019-02-21T02:20:43.468Z,2.42
2019-02-21T02:23:11.931Z,3.60
2019-02-21T02:25:40.329Z,1.85
2019-02-21T02:28:08.719Z,3.50
2019-02-21T02:30:37.162Z,1.75
2019-02-21T02:33:05.567Z,1.98
2019-02-21T02:35:33.965Z,2.35
2019-02-21T02:38:02.369Z,1.62
2019-02-21T02:40:30.762Z,2.62
2019-02-21T02:43:01.154Z,2.17
2019-02-21T02:45:29.297Z,1.57
2019-02-21T02:47:57.762Z,3.00
2019-02-21T02:50:26.160Z,1.15
2019-02-21T02:52:54.561Z,1.15
2019-02-21T02:55:22.999Z,2.52
2019-02-21T02:57:51.397Z,2.80
2019-02-21T03:00:19.789Z,3.83
2019-02-21T03:02:48.202Z,3.50
2019-02-21T03:05:16.602Z,2.72
2019-02-21T03:07:47.019Z,3.80
2019-02-21T03:10:15.074Z,3.83
2019-02-21T03:12:43.481Z,3.17
2019-02-21T03:15:11.868Z,2.20
2019-02-21T03:17:40.269Z,2.08
2019-02-21T03:20:09.936Z,4.20
2019-02-21T03:22:38.336Z,2.40
2019-02-21T03:25:07.333Z,1.72
2019-02-21T03:27:35.743Z,1.52
2019-02-21T03:30:05.085Z,1.62
2019-02-21T03:32:33.510Z,1.95
2019-02-21T03:35:01.920Z,1.07
2019-02-21T03:37:30.403Z,1.50
2019-02-21T03:39:58.843Z,2.62
2019-02-21T03:42:27.332Z,3.40
2019-02-21T03:44:55.764Z,1.98
2019-02-21T03:47:24.161Z,1.80
2019-02-21T03:49:52.561Z,2.85
2019-02-21T03:52:20.969Z,3.08
2019-02-21T03:54:49.357Z,1.10
2019-02-21T03:57:17.761Z,3.37
2019-02-21T03:59:46.160Z,3.67
2019-02-21T04:02:14.609Z,2.52
2019-02-21T04:04:43.009Z,3.00
2019-02-21T04:07:11.681Z,7.20
2019-02-21T04:09:40.150Z,2.15
2019-02-21T04:12:08.583Z,7.72
2019-02-21T04:14:37.056Z,4.10
2019-02-21T04:17:05.449Z,1.98
2019-02-21T04:19:33.885Z,1.47
2019-02-21T04:22:02.280Z,1.30
2019-02-21T04:24:30.702Z,4.10
2019-02-21T04:26:59.113Z,3.52
2019-02-21T04:29:27.514Z,4.42
2019-02-21T04:31:57.116Z,1.37
2019-02-21T04:34:25.527Z,2.17
2019-02-21T04:36:53.924Z,3.20
2019-02-21T04:39:22.320Z,2.33
2019-02-21T04:41:50.740Z,6.00
2019-02-21T04:44:19.182Z,4.53
2019-02-21T04:46:48.657Z,9.25
2019-02-21T04:49:17.044Z,5.62
2019-02-21T04:51:45.447Z,4.17
2019-02-21T04:54:13.849Z,5.08
2019-02-21T04:56:42.284Z,3.35
2019-02-21T04:59:10.682Z,1.80
2019-02-21T05:01:40.373Z,4.85
2019-02-21T05:04:09.034Z,3.77
2019-02-21T05:06:37.421Z,2.72
2019-02-21T05:09:07.513Z,6.45
2019-02-21T05:11:36.034Z,7.20
2019-02-21T05:14:04.436Z,6.20
2019-02-21T05:16:32.985Z,8.50
2019-02-21T05:19:01.465Z,5.33
2019-02-21T05:21:29.856Z,9.43
2019-02-21T05:23:58.326Z,7.95
2019-02-21T05:26:28.390Z,5.22
2019-02-21T05:28:56.877Z,4.28
2019-02-21T05:31:26.914Z,6.42
2019-02-21T05:33:56.982Z,9.93
2019-02-21T05:36:35.867Z,3.60
2019-02-21T05:39:13.130Z,5.33
2019-02-21T05:41:43.169Z,6.65
2019-02-21T05:44:13.216Z,5.37
2019-02-21T05:46:46.245Z,2.50
2019-02-21T05:49:17.249Z,4.17
2019-02-21T05:51:50.356Z,9.95
2019-02-21T05:54:26.387Z,6.55
2019-02-21T05:56:59.175Z,3.58
2019-02-21T05:59:31.980Z,5.55
2019-02-21T06:02:04.764Z,5.25
2019-02-21T06:04:51.960Z,5.00
2019-02-21T06:07:27.896Z,3.77
2019-02-21T06:09:57.936Z,5.80
2019-02-21T06:12:33.506Z,4.43
2019-02-21T06:15:02.414Z,8.98
2019-02-21T06:17:38.529Z,4.37
2019-02-21T06:20:27.718Z,4.75
2019-02-21T06:23:00.723Z,5.50
2019-02-21T06:25:50.928Z,6.53
2019-02-21T06:28:14.916Z,6.83
2019-02-21T06:30:44.980Z,5.67
2019-02-21T06:33:13.364Z,6.10
2019-02-21T06:35:43.011Z,5.45
2019-02-21T06:38:11.364Z,5.05
2019-02-21T06:40:39.767Z,7.33
2019-02-21T06:43:08.178Z,5.45
2019-02-21T06:45:36.576Z,4.70
2019-02-21T06:48:05.081Z,5.75
2019-02-21T06:50:34.338Z,4.35
2019-02-21T06:53:02.732Z,2.58
2019-02-21T06:55:31.167Z,2.30
2019-02-21T06:57:59.560Z,2.75
2019-02-21T07:00:27.983Z,5.03
2019-02-21T07:02:56.380Z,3.60
2019-02-21T07:05:24.780Z,2.67
2019-02-21T07:07:53.180Z,3.75
2019-02-21T07:10:21.581Z,3.60
2019-02-21T07:12:50.036Z,9.08
2019-02-21T07:15:18.432Z,2.77
2019-02-21T07:17:49.518Z,3.10
2019-02-21T07:20:16.882Z,2.87
2019-02-21T07:22:45.348Z,4.72
2019-02-21T07:25:37.582Z,4.42
2019-02-21T07:28:11.732Z,7.95
2019-02-21T07:30:37.176Z,4.00
2019-02-21T07:33:05.581Z,4.40
2019-02-21T07:35:33.980Z,2.05
2019-02-21T07:38:02.425Z,6.87
2019-02-21T07:40:30.832Z,7.50
2019-02-21T07:42:59.309Z,5.12
2019-02-21T07:45:27.704Z,3.65
2019-02-21T07:47:56.158Z,8.40
2019-02-21T07:50:24.632Z,1.62
2019-02-21T07:53:01.976Z,6.47
2019-02-21T07:55:23.148Z,3.03
2019-02-21T07:57:52.190Z,4.15
2019-02-21T08:00:20.594Z,2.65
2019-02-21T08:02:49.028Z,7.83
2019-02-21T08:05:17.444Z,5.08
2019-02-21T08:07:45.849Z,3.12
2019-02-21T08:10:14.246Z,5.12
2019-02-21T08:12:42.648Z,1.37
2019-02-21T08:15:12.425Z,2.85
2019-02-21T08:17:40.816Z,5.85
2019-02-21T08:20:11.388Z,2.45
2019-02-21T08:22:39.868Z,3.67
2019-02-21T08:25:10.100Z,4.55
2019-02-21T08:27:38.545Z,3.13
2019-02-21T08:30:12.864Z,2.52
2019-02-21T08:32:59.285Z,3.65
2019-02-21T08:35:28.020Z,2.60
2019-02-21T08:37:56.466Z,2.95
2019-02-21T08:40:25.169Z,3.55
2019-02-21T08:42:53.689Z,3.60
2019-02-21T08:45:22.197Z,2.02
2019-02-21T08:47:50.592Z,3.55
2019-02-21T08:50:21.997Z,2.62
2019-02-21T08:52:49.041Z,5.33
2019-02-21T08:55:17.504Z,6.03
2019-02-21T08:57:45.932Z,3.52
2019-02-21T09:00:15.633Z,2.42
2019-02-21T09:02:44.105Z,3.87
2019-02-21T09:05:13.145Z,3.75
2019-02-21T09:07:41.548Z,5.78
2019-02-21T09:10:11.512Z,5.70
2019-02-21T09:12:39.976Z,2.83
2019-02-21T09:15:14.373Z,3.20
2019-02-21T09:17:42.837Z,4.83
2019-02-21T09:20:11.936Z,3.72
2019-02-21T09:22:40.376Z,2.05
2019-02-21T09:25:11.368Z,3.60
2019-02-21T09:27:39.788Z,7.12
2019-02-21T09:30:13.998Z,3.00
2019-02-21T09:32:42.401Z,3.58
2019-02-21T09:35:10.821Z,2.35
2019-02-21T09:37:39.293Z,2.50
2019-02-21T09:40:10.764Z,2.80
2019-02-21T09:42:39.351Z,6.17
2019-02-21T09:45:14.925Z,3.08
2019-02-21T09:47:43.630Z,3.62
2019-02-21T09:50:12.025Z,3.83
2019-02-21T09:52:40.589Z,1.80
2019-02-21T09:55:11.171Z,3.25
2019-02-21T09:57:39.566Z,3.58
2019-02-21T10:00:11.164Z,2.58
2019-02-21T10:02:41.965Z,1.45
2019-02-21T10:05:09.612Z,7.72
2019-02-21T10:07:38.063Z,3.22
2019-02-21T10:10:09.749Z,5.25
2019-02-21T10:12:38.141Z,3.47
2019-02-21T10:15:08.976Z,2.20
2019-02-21T10:17:37.391Z,4.83
2019-02-21T10:20:08.935Z,3.65
2019-02-21T10:22:37.326Z,2.77
2019-02-21T10:25:09.082Z,2.87
2019-02-21T10:27:37.527Z,3.35
2019-02-21T10:30:09.168Z,7.22
2019-02-21T10:32:37.620Z,6.72
2019-02-21T10:35:06.692Z,2.35
2019-02-21T10:37:35.097Z,2.85
2019-02-21T10:40:03.489Z,5.80
2019-02-21T10:42:31.902Z,2.92
2019-02-21T10:45:02.649Z,11.08
2019-02-21T10:47:30.581Z,6.83
2019-02-21T10:49:58.976Z,3.40
2019-02-21T10:52:27.392Z,1.90
2019-02-21T10:54:55.802Z,1.25
2019-02-21T10:57:24.241Z,3.52
2019-02-21T10:59:52.661Z,2.65
2019-02-21T11:02:21.125Z,6.65
2019-02-21T11:04:54.803Z,4.42
2019-02-21T11:07:19.569Z,6.03
2019-02-21T11:09:47.988Z,4.70
2019-02-21T11:12:16.448Z,7.10
2019-02-21T11:14:47.562Z,3.95
2019-02-21T11:17:14.899Z,1.10
2019-02-21T11:19:43.285Z,1.15
2019-02-21T11:22:11.740Z,1.17
2019-02-21T11:24:40.140Z,20.48
2019-02-21T11:27:08.536Z,5.17
2019-02-21T11:29:36.946Z,3.67
2019-02-21T11:32:05.337Z,3.72
2019-02-21T11:34:33.764Z,1.20
2019-02-21T11:37:02.180Z,1.00
2019-02-21T11:39:30.685Z,2.35
2019-02-21T11:41:59.089Z,3.15
2019-02-21T11:44:27.480Z,1.05
2019-02-21T11:46:55.914Z,2.67
2019-02-21T11:49:24.306Z,2.52
2019-02-21T11:51:52.770Z,3.58
2019-02-21T11:54:27.099Z,2.98
2019-02-21T11:56:51.210Z,2.60
2019-02-21T11:59:19.603Z,2.98
2019-02-21T12:01:47.997Z,2.05
2019-02-21T12:04:16.423Z,3.42
2019-02-21T12:06:44.822Z,1.87
2019-02-21T12:09:13.381Z,3.15
2019-02-21T12:11:41.787Z,1.65
2019-02-21T12:14:10.173Z,3.60
2019-02-21T12:16:38.702Z,3.20
2019-02-21T12:19:07.100Z,3.20
2019-02-21T12:21:35.572Z,5.83
2019-02-21T12:24:03.960Z,5.90
2019-02-21T12:26:32.365Z,4.33
2019-02-21T12:29:00.878Z,5.97
2019-02-21T12:31:29.265Z,6.33
2019-02-21T12:33:57.664Z,11.53
2019-02-21T12:36:26.060Z,8.78
2019-02-21T12:38:54.529Z,10.80
2019-02-21T12:41:22.952Z,5.83
2019-02-21T12:43:51.349Z,3.40
2019-02-21T12:46:19.744Z,2.58
2019-02-21T12:48:48.141Z,1.95
2019-02-21T12:51:16.537Z,3.83
2019-02-21T12:53:44.968Z,3.12
2019-02-21T12:56:13.356Z,2.25
2019-02-21T12:58:41.824Z,4.87
2019-02-21T13:01:10.240Z,6.30
2019-02-21T13:03:38.859Z,6.87
2019-02-21T13:06:07.280Z,2.83
2019-02-21T13:08:35.680Z,7.92
2019-02-21T13:11:04.078Z,6.45
2019-02-21T13:13:32.472Z,6.92
2019-02-21T13:16:01.000Z,2.42
2019-02-21T13:18:29.514Z,2.22
2019-02-21T13:20:57.901Z,5.80
2019-02-21T13:23:26.294Z,3.87
2019-02-21T13:25:54.768Z,8.75
2019-02-21T13:28:23.153Z,4.45
2019-02-21T13:30:51.593Z,5.30
2019-02-21T13:33:19.987Z,6.33
2019-02-21T13:35:52.587Z,5.00
2019-02-21T13:38:18.424Z,5.12
2019-02-21T13:40:49.434Z,3.00
2019-02-21T13:43:16.956Z,3.40
2019-02-21T13:45:45.348Z,3.42
2019-02-21T13:48:13.814Z,3.00
2019-02-21T13:50:42.225Z,2.42
2019-02-21T13:53:10.722Z,2.52
2019-02-21T13:55:39.173Z,5.70
2019-02-21T13:58:07.561Z,3.67
2019-02-21T14:00:35.973Z,7.95
2019-02-21T14:03:04.369Z,3.70
2019-02-21T14:05:32.849Z,7.60
2019-02-21T14:08:01.286Z,3.15
2019-02-21T14:10:29.668Z,2.87
2019-02-21T14:12:58.068Z,3.17
2019-02-21T14:15:29.068Z,3.00
2019-02-21T14:20:25.256Z,2.22
2019-02-21T14:22:53.657Z,2.60
2019-02-21T14:25:22.072Z,5.67
2019-02-21T14:27:50.451Z,4.28
2019-02-21T14:30:20.076Z,3.22
2019-02-21T14:32:48.481Z,4.62
2019-02-21T14:35:16.892Z,5.60
2019-02-21T14:37:45.384Z,6.15
2019-02-21T14:40:15.969Z,3.40
2019-02-21T14:42:44.372Z,4.55
2019-02-21T14:45:26.221Z,5.60
2019-02-21T14:47:54.617Z,5.58
2019-02-21T14:50:23.048Z,7.37
2019-02-21T14:52:51.454Z,31.97
2019-02-21T14:55:19.840Z,7.87
2019-02-21T14:57:48.245Z,9.95
2019-02-21T15:00:23.844Z,6.22
2019-02-21T15:02:52.277Z,8.90
2019-02-21T15:05:20.817Z,7.80
2019-02-21T15:07:49.224Z,7.90
2019-02-21T15:10:17.714Z,11.00
2019-02-21T15:12:46.144Z,9.28
2019-02-21T15:15:23.432Z,11.95
2019-02-21T15:17:51.836Z,12.07
2019-02-21T15:20:21.220Z,19.40
2019-02-21T15:22:50.782Z,12.30
2019-02-21T15:25:20.444Z,13.60
2019-02-21T15:27:50.000Z,14.83
2019-02-21T15:30:21.051Z,20.40
2019-02-21T15:35:19.614Z,20.30
2019-02-21T15:37:49.187Z,21.73
2019-02-21T15:40:18.503Z,14.80
2019-02-21T15:42:47.956Z,14.63
2019-02-21T15:45:23.516Z,13.48
2019-02-21T15:47:50.587Z,11.15
2019-02-21T15:50:20.432Z,11.20
2019-02-21T15:52:49.992Z,13.38
2019-02-21T15:55:22.634Z,12.30
2019-02-21T15:58:00.520Z,14.05
2019-02-21T16:02:51.873Z,12.73
2019-02-21T16:05:21.703Z,19.82
2019-02-21T16:07:51.365Z,10.93
2019-02-21T16:10:25.079Z,6.78
2019-02-21T16:12:54.636Z,16.77
2019-02-21T16:15:24.824Z,16.65
2019-02-21T16:17:54.321Z,12.13
2019-02-21T16:20:23.813Z,19.02
2019-02-21T16:22:53.468Z,13.90
2019-02-21T16:25:24.241Z,7.83
2019-02-21T16:27:55.475Z,8.00
2019-02-21T16:30:24.906Z,12.85
2019-02-21T16:32:54.432Z,14.05
2019-02-21T16:35:23.888Z,20.95
2019-02-21T16:37:53.468Z,18.07
2019-02-21T16:40:22.988Z,14.85
2019-02-21T16:42:52.452Z,14.85
2019-02-21T16:45:22.648Z,19.90
2019-02-21T16:47:51.985Z,22.73
2019-02-21T16:50:29.455Z,18.85
2019-02-21T16:52:52.863Z,19.70
2019-02-21T16:55:23.254Z,25.20
2019-02-21T16:57:52.920Z,15.70
2019-02-21T17:00:23.263Z,16.42
2019-02-21T17:02:52.732Z,13.08
2019-02-21T17:05:22.407Z,14.87
2019-02-21T17:07:51.922Z,8.23
2019-02-21T17:10:21.650Z,7.58
2019-02-21T17:12:51.076Z,9.68
2019-02-21T17:15:20.529Z,12.88
2019-02-21T17:17:49.867Z,8.90
2019-02-21T17:20:23.821Z,9.48
2019-02-21T17:22:53.356Z,11.15
2019-02-21T17:25:22.877Z,13.18
2019-02-21T17:27:52.341Z,9.45
2019-02-21T17:30:22.125Z,11.83
2019-02-21T17:32:51.545Z,10.72
2019-02-21T17:35:21.065Z,9.60
2019-02-21T17:37:50.544Z,10.03
2019-02-21T17:40:24.836Z,7.53
2019-02-21T17:42:54.240Z,7.22
2019-02-21T17:45:23.685Z,8.65
2019-02-21T17:47:53.384Z,4.75
2019-02-21T17:50:23.018Z,7.87
2019-02-21T17:52:52.546Z,3.87
2019-02-21T17:55:22.052Z,4.40
2019-02-21T17:57:51.575Z,10.80
2019-02-21T18:00:23.381Z,8.13
2019-02-21T18:02:52.966Z,5.80
2019-02-21T18:05:22.508Z,7.08
2019-02-21T18:07:52.129Z,7.30
2019-02-21T18:10:21.584Z,8.10
2019-02-21T18:12:51.010Z,9.67
2019-02-21T18:15:20.672Z,11.35
2019-02-21T18:17:50.009Z,8.25
2019-02-21T18:20:19.515Z,8.58
2019-02-21T18:22:48.990Z,6.08
2019-02-21T18:25:37.807Z,6.80
2019-02-21T18:28:07.324Z,7.83
2019-02-21T18:30:37.073Z,6.00
2019-02-21T18:33:06.673Z,8.50
2019-02-21T18:35:36.195Z,9.43
2019-02-21T18:38:05.743Z,7.83
2019-02-21T18:40:35.178Z,12.33
2019-02-21T18:43:04.889Z,16.05
2019-02-21T18:45:34.284Z,13.78
2019-02-21T18:48:03.755Z,12.45
2019-02-21T18:50:38.243Z,12.05
2019-02-21T18:53:04.284Z,13.45
2019-02-21T18:55:33.841Z,10.68
2019-02-21T18:58:03.270Z,12.73
2019-02-21T19:00:32.920Z,13.35
2019-02-21T19:03:02.482Z,9.73
2019-02-21T19:05:36.216Z,4.00
2019-02-21T19:08:05.558Z,8.35
2019-02-21T19:10:35.540Z,6.17
2019-02-21T19:13:04.036Z,11.45
2019-02-21T19:15:32.732Z,5.05
2019-02-21T19:18:01.132Z,5.70
2019-02-21T19:20:29.648Z,5.92
2019-02-21T19:22:58.096Z,7.33
2019-02-21T19:25:26.555Z,13.18
2019-02-21T19:27:56.784Z,10.43
2019-02-21T19:30:28.447Z,3.83
2019-02-21T19:32:56.928Z,6.20
2019-02-21T19:35:25.581Z,4.70
2019-02-21T19:37:53.974Z,4.42
2019-02-21T19:40:22.398Z,8.83
2019-02-21T19:42:50.802Z,12.78
2019-02-21T19:45:19.253Z,10.18
2019-02-21T19:47:47.661Z,4.75
2019-02-21T19:50:16.051Z,3.52
2019-02-21T19:52:44.441Z,3.15
2019-02-21T19:55:12.987Z,5.00
2019-02-21T19:57:41.380Z,4.12
2019-02-21T20:00:13.314Z,4.55
2019-02-21T20:02:41.824Z,3.25
2019-02-21T20:05:10.230Z,5.37
2019-02-21T20:07:38.625Z,3.92
2019-02-21T20:10:08.404Z,4.55
2019-02-21T20:12:36.805Z,3.95
2019-02-21T20:15:07.475Z,8.03
2019-02-21T20:17:35.908Z,6.40
2019-02-21T20:20:06.929Z,5.25
2019-02-21T20:25:03.591Z,6.97
2019-02-21T20:27:32.069Z,16.70
2019-02-21T20:30:00.501Z,5.55
2019-02-21T20:32:28.892Z,7.30
2019-02-21T20:34:57.293Z,5.70
2019-02-21T20:37:25.692Z,5.55
2019-02-21T20:39:55.150Z,5.08
2019-02-21T20:42:23.688Z,7.12
2019-02-21T20:44:52.090Z,6.30
2019-02-21T20:47:20.504Z,6.22
2019-02-21T20:49:49.053Z,5.12
2019-02-21T20:52:17.453Z,9.60
2019-02-21T20:54:45.905Z,8.13
2019-02-21T20:57:14.282Z,5.17
2019-02-21T20:59:42.684Z,5.22
2019-02-21T21:02:11.130Z,6.92
2019-02-21T21:04:39.528Z,5.50
2019-02-21T21:07:08.033Z,4.72
2019-02-21T21:09:36.432Z,3.90
2019-02-21T21:12:04.832Z,3.98
2019-02-21T21:14:33.316Z,3.65
2019-02-21T21:17:01.812Z,3.27
2019-02-21T21:19:30.253Z,5.15
2019-02-21T21:21:58.650Z,4.72
2019-02-21T21:24:27.081Z,2.95
2019-02-21T21:26:55.477Z,2.87
2019-02-21T21:29:23.906Z,3.45
2019-02-21T21:31:52.338Z,6.70
2019-02-21T21:34:20.741Z,5.17
2019-02-21T21:36:49.153Z,7.25
2019-02-21T21:39:17.559Z,1.95
2019-02-21T21:41:45.948Z,3.90
2019-02-21T21:44:14.405Z,2.92
2019-02-21T21:46:42.785Z,5.92
2019-02-21T21:49:11.181Z,4.28
2019-02-21T21:51:39.587Z,3.42
2019-02-21T21:54:07.977Z,4.12
2019-02-21T21:56:36.448Z,6.17
2019-02-21T21:59:04.864Z,3.67
2019-02-21T22:01:33.257Z,7.85
2019-02-21T22:04:01.739Z,4.35
2019-02-21T22:06:30.134Z,5.95
2019-02-21T22:09:04.766Z,6.12
2019-02-21T22:11:28.615Z,4.35
2019-02-21T22:13:57.056Z,6.87
2019-02-21T22:16:25.452Z,9.58
2019-02-21T22:18:53.856Z,8.25
2019-02-21T22:21:22.344Z,4.40
2019-02-21T22:23:50.747Z,2.90
2019-02-21T22:26:19.172Z,5.15
2019-02-21T22:28:47.588Z,5.12
2019-02-21T22:31:16.018Z,11.40
2019-02-21T22:33:44.449Z,7.17
2019-02-21T22:36:12.844Z,4.75
2019-02-21T22:38:41.411Z,5.47
2019-02-21T22:41:09.818Z,4.03
2019-02-21T22:43:38.215Z,1.92
2019-02-21T22:46:06.641Z,4.42
2019-02-21T22:48:35.061Z,3.42
2019-02-21T22:51:03.436Z,6.87
2019-02-21T22:53:31.852Z,1.85
2019-02-21T22:56:00.249Z,1.85
2019-02-21T22:58:28.692Z,5.08
2019-02-21T23:01:00.720Z,4.12
2019-02-21T23:03:44.669Z,4.35
2019-02-21T23:06:31.246Z,2.42
2019-02-21T23:08:59.661Z,2.35
2019-02-21T23:11:28.147Z,3.00
2019-02-21T23:13:56.590Z,1.98
2019-02-21T23:16:24.988Z,2.15
2019-02-21T23:18:53.615Z,3.33
2019-02-21T23:21:22.063Z,3.58
2019-02-21T23:23:50.448Z,1.65
2019-02-21T23:26:18.856Z,2.83
2019-02-21T23:28:47.240Z,3.27
2019-02-21T23:31:15.727Z,1.80
2019-02-21T23:33:45.797Z,3.30
2019-02-21T23:36:14.261Z,2.42
2019-02-21T23:38:42.658Z,2.25
2019-02-21T23:41:11.128Z,1.67
2019-02-21T23:43:39.591Z,1.85
2019-02-21T23:46:08.051Z,2.67
2019-02-21T23:48:36.583Z,2.10
2019-02-21T23:51:04.984Z,1.42
2019-02-21T23:53:33.392Z,3.08
2019-02-21T23:56:01.780Z,4.75
2019-02-21T23:58:31.157Z,4.62
